Advent, West Virginia
Current Conditions -  °F | °C
As of 9:19 PM on Thursday 27 Nov 2014 (Local Time) from KCRW Reporting Station
Light Snow Light Snow  
Wind Chill: 24°   Ceiling: 1500
Heat Index: 30°   Visibility: 2mi
Dew Point: 27°   Wind: 6mph
Humidity: 88%   Direction: 240°WSW
Pressure: 30.33"   Gusts: NA
Location:  38.63°N, 81.57°W
Report Text: KCRW 280219Z 24005KT 2SM -SN BR FEW008 BKN015 OVC030 M01/M03 A3033 RMK AO2 P0001 T10111028
Loading
Personal Weather Stations






























Interactive Weather Map New forecast layout! Learn more

10-Day Weather Forecast

Advertisements
Track Severe Weather on mobile